sensor_id;sensor_type;location;lat;lon;timestamp;P1;durP1;ratioP1;P2;durP2;ratioP2
63110;SDS011;49201;53.426;10.300;2023-02-17T00:01:14;79.27;;;55.57;;
63110;SDS011;49201;53.426;10.300;2023-02-17T00:03:43;77.43;;;54.30;;
63110;SDS011;49201;53.426;10.300;2023-02-17T00:06:12;79.20;;;54.40;;
63110;SDS011;49201;53.426;10.300;2023-02-17T00:08:38;80.73;;;55.73;;
63110;SDS011;49201;53.426;10.300;2023-02-17T00:11:04;76.23;;;53.60;;
63110;SDS011;49201;53.426;10.300;2023-02-17T00:13:29;80.10;;;55.07;;
63110;SDS011;49201;53.426;10.300;2023-02-17T00:15:55;79.70;;;54.90;;
63110;SDS011;49201;53.426;10.300;2023-02-17T00:18:20;75.30;;;51.73;;
63110;SDS011;49201;53.426;10.300;2023-02-17T00:20:46;74.23;;;52.63;;
63110;SDS011;49201;53.426;10.300;2023-02-17T00:23:11;76.37;;;51.83;;
63110;SDS011;49201;53.426;10.300;2023-02-17T00:25:37;73.70;;;53.27;;
63110;SDS011;49201;53.426;10.300;2023-02-17T00:28:03;73.53;;;52.90;;
63110;SDS011;49201;53.426;10.300;2023-02-17T00:30:29;69.27;;;51.27;;
63110;SDS011;49201;53.426;10.300;2023-02-17T00:32:54;66.20;;;49.20;;
63110;SDS011;49201;53.426;10.300;2023-02-17T00:35:19;68.40;;;49.67;;
63110;SDS011;49201;53.426;10.300;2023-02-17T00:37:45;68.93;;;49.47;;
63110;SDS011;49201;53.426;10.300;2023-02-17T00:40:11;69.30;;;49.37;;
63110;SDS011;49201;53.426;10.300;2023-02-17T00:42:37;69.90;;;49.50;;
63110;SDS011;49201;53.426;10.300;2023-02-17T00:45:03;70.60;;;49.73;;
63110;SDS011;49201;53.426;10.300;2023-02-17T00:47:30;72.30;;;50.37;;
63110;SDS011;49201;53.426;10.300;2023-02-17T00:49:55;72.03;;;49.80;;
63110;SDS011;49201;53.426;10.300;2023-02-17T00:52:21;68.07;;;49.10;;
63110;SDS011;49201;53.426;10.300;2023-02-17T00:54:47;65.53;;;47.43;;
63110;SDS011;49201;53.426;10.300;2023-02-17T00:57:12;66.40;;;47.53;;
63110;SDS011;49201;53.426;10.300;2023-02-17T00:59:37;69.53;;;49.80;;
63110;SDS011;49201;53.426;10.300;2023-02-17T01:02:06;70.47;;;48.77;;
63110;SDS011;49201;53.426;10.300;2023-02-17T01:04:34;68.17;;;48.77;;
63110;SDS011;49201;53.426;10.300;2023-02-17T01:06:59;65.57;;;48.93;;
63110;SDS011;49201;53.426;10.300;2023-02-17T01:09:25;70.77;;;49.00;;
63110;SDS011;49201;53.426;10.300;2023-02-17T01:11:50;67.03;;;46.87;;
63110;SDS011;49201;53.426;10.300;2023-02-17T01:14:16;66.10;;;48.10;;
63110;SDS011;49201;53.426;10.300;2023-02-17T01:16:45;63.47;;;46.53;;
63110;SDS011;49201;53.426;10.300;2023-02-17T01:19:13;65.27;;;47.47;;
63110;SDS011;49201;53.426;10.300;2023-02-17T01:21:46;63.40;;;45.73;;
63110;SDS011;49201;53.426;10.300;2023-02-17T01:24:11;65.50;;;47.67;;
63110;SDS011;49201;53.426;10.300;2023-02-17T01:26:37;65.43;;;46.47;;
63110;SDS011;49201;53.426;10.300;2023-02-17T01:29:04;67.13;;;47.67;;
63110;SDS011;49201;53.426;10.300;2023-02-17T01:31:31;65.20;;;46.73;;
63110;SDS011;49201;53.426;10.300;2023-02-17T01:33:57;65.33;;;45.83;;
63110;SDS011;49201;53.426;10.300;2023-02-17T01:36:24;65.17;;;45.27;;
63110;SDS011;49201;53.426;10.300;2023-02-17T01:38:50;66.53;;;46.90;;
63110;SDS011;49201;53.426;10.300;2023-02-17T01:41:17;64.83;;;46.10;;
63110;SDS011;49201;53.426;10.300;2023-02-17T01:44:04;65.57;;;46.43;;
63110;SDS011;49201;53.426;10.300;2023-02-17T01:46:42;65.50;;;45.40;;
63110;SDS011;49201;53.426;10.300;2023-02-17T01:52:23;67.37;;;46.63;;
63110;SDS011;49201;53.426;10.300;2023-02-17T01:54:52;67.00;;;46.13;;
63110;SDS011;49201;53.426;10.300;2023-02-17T01:57:22;73.50;;;49.07;;
63110;SDS011;49201;53.426;10.300;2023-02-17T01:59:51;70.57;;;48.83;;
63110;SDS011;49201;53.426;10.300;2023-02-17T02:02:18;72.33;;;51.17;;
63110;SDS011;49201;53.426;10.300;2023-02-17T02:04:44;76.60;;;49.43;;
63110;SDS011;49201;53.426;10.300;2023-02-17T02:07:15;75.60;;;50.67;;
63110;SDS011;49201;53.426;10.300;2023-02-17T02:09:54;71.70;;;48.93;;
63110;SDS011;49201;53.426;10.300;2023-02-17T02:12:22;77.50;;;51.80;;
63110;SDS011;49201;53.426;10.300;2023-02-17T02:14:53;79.57;;;53.23;;
63110;SDS011;49201;53.426;10.300;2023-02-17T02:17:34;78.13;;;49.90;;
63110;SDS011;49201;53.426;10.300;2023-02-17T02:34:21;76.17;;;48.70;;
63110;SDS011;49201;53.426;10.300;2023-02-17T02:39:16;69.80;;;47.83;;
63110;SDS011;49201;53.426;10.300;2023-02-17T02:41:48;72.80;;;48.23;;
63110;SDS011;49201;53.426;10.300;2023-02-17T02:44:18;73.07;;;47.47;;
63110;SDS011;49201;53.426;10.300;2023-02-17T02:46:54;68.73;;;46.27;;
63110;SDS011;49201;53.426;10.300;2023-02-17T02:49:24;67.37;;;46.63;;
63110;SDS011;49201;53.426;10.300;2023-02-17T02:51:54;68.20;;;45.97;;
63110;SDS011;49201;53.426;10.300;2023-02-17T02:57:33;69.93;;;44.80;;
63110;SDS011;49201;53.426;10.300;2023-02-17T03:05:52;64.73;;;43.83;;
63110;SDS011;49201;53.426;10.300;2023-02-17T03:08:25;63.77;;;43.60;;
63110;SDS011;49201;53.426;10.300;2023-02-17T03:10:58;68.57;;;44.70;;
63110;SDS011;49201;53.426;10.300;2023-02-17T03:13:25;64.37;;;43.17;;
63110;SDS011;49201;53.426;10.300;2023-02-17T03:15:50;62.40;;;41.80;;
63110;SDS011;49201;53.426;10.300;2023-02-17T03:18:16;62.77;;;41.60;;
63110;SDS011;49201;53.426;10.300;2023-02-17T03:20:53;61.57;;;40.37;;
63110;SDS011;49201;53.426;10.300;2023-02-17T03:23:23;59.37;;;41.37;;
63110;SDS011;49201;53.426;10.300;2023-02-17T03:25:49;58.37;;;38.00;;
63110;SDS011;49201;53.426;10.300;2023-02-17T03:28:14;55.77;;;38.43;;
63110;SDS011;49201;53.426;10.300;2023-02-17T03:30:40;56.63;;;38.13;;
63110;SDS011;49201;53.426;10.300;2023-02-17T03:33:06;58.23;;;39.13;;
63110;SDS011;49201;53.426;10.300;2023-02-17T03:35:32;54.40;;;38.20;;
63110;SDS011;49201;53.426;10.300;2023-02-17T03:37:57;52.67;;;37.50;;
63110;SDS011;49201;53.426;10.300;2023-02-17T03:40:23;55.07;;;37.63;;
63110;SDS011;49201;53.426;10.300;2023-02-17T03:42:48;54.20;;;38.23;;
63110;SDS011;49201;53.426;10.300;2023-02-17T03:45:14;55.43;;;37.53;;
63110;SDS011;49201;53.426;10.300;2023-02-17T03:47:39;53.77;;;35.87;;
63110;SDS011;49201;53.426;10.300;2023-02-17T03:50:05;51.73;;;35.70;;
63110;SDS011;49201;53.426;10.300;2023-02-17T03:52:31;50.80;;;34.20;;
63110;SDS011;49201;53.426;10.300;2023-02-17T03:54:56;48.80;;;33.93;;
63110;SDS011;49201;53.426;10.300;2023-02-17T03:57:22;51.10;;;35.63;;
63110;SDS011;49201;53.426;10.300;2023-02-17T03:59:47;50.17;;;35.80;;
63110;SDS011;49201;53.426;10.300;2023-02-17T04:02:13;51.83;;;35.17;;
63110;SDS011;49201;53.426;10.300;2023-02-17T04:04:38;48.47;;;34.43;;
63110;SDS011;49201;53.426;10.300;2023-02-17T04:07:04;51.30;;;34.80;;
63110;SDS011;49201;53.426;10.300;2023-02-17T04:09:29;54.13;;;34.77;;
63110;SDS011;49201;53.426;10.300;2023-02-17T04:11:55;49.93;;;33.63;;
63110;SDS011;49201;53.426;10.300;2023-02-17T04:14:20;49.93;;;35.20;;
63110;SDS011;49201;53.426;10.300;2023-02-17T04:16:46;51.37;;;34.90;;
63110;SDS011;49201;53.426;10.300;2023-02-17T04:19:11;49.60;;;33.97;;
63110;SDS011;49201;53.426;10.300;2023-02-17T04:21:36;49.00;;;33.67;;
63110;SDS011;49201;53.426;10.300;2023-02-17T04:24:02;48.80;;;32.40;;
63110;SDS011;49201;53.426;10.300;2023-02-17T04:26:28;48.47;;;33.60;;
63110;SDS011;49201;53.426;10.300;2023-02-17T04:28:54;52.63;;;34.63;;
63110;SDS011;49201;53.426;10.300;2023-02-17T04:31:20;48.17;;;33.27;;
63110;SDS011;49201;53.426;10.300;2023-02-17T04:33:45;56.37;;;33.97;;
63110;SDS011;49201;53.426;10.300;2023-02-17T04:36:11;50.90;;;33.67;;
63110;SDS011;49201;53.426;10.300;2023-02-17T04:38:36;51.20;;;32.93;;
63110;SDS011;49201;53.426;10.300;2023-02-17T04:41:02;50.80;;;32.33;;
63110;SDS011;49201;53.426;10.300;2023-02-17T04:43:28;50.33;;;33.83;;
63110;SDS011;49201;53.426;10.300;2023-02-17T04:45:54;47.73;;;32.77;;
63110;SDS011;49201;53.426;10.300;2023-02-17T04:48:19;45.80;;;30.50;;
63110;SDS011;49201;53.426;10.300;2023-02-17T04:50:45;47.40;;;31.77;;
63110;SDS011;49201;53.426;10.300;2023-02-17T04:53:10;44.87;;;30.50;;
63110;SDS011;49201;53.426;10.300;2023-02-17T04:55:38;46.33;;;31.93;;
63110;SDS011;49201;53.426;10.300;2023-02-17T04:58:04;46.77;;;31.10;;
63110;SDS011;49201;53.426;10.300;2023-02-17T05:00:30;45.10;;;30.17;;
63110;SDS011;49201;53.426;10.300;2023-02-17T05:02:55;46.17;;;30.03;;
63110;SDS011;49201;53.426;10.300;2023-02-17T05:05:21;44.57;;;29.40;;
63110;SDS011;49201;53.426;10.300;2023-02-17T05:07:46;44.63;;;29.60;;
63110;SDS011;49201;53.426;10.300;2023-02-17T05:10:12;44.33;;;29.27;;
63110;SDS011;49201;53.426;10.300;2023-02-17T05:12:39;47.20;;;29.53;;
63110;SDS011;49201;53.426;10.300;2023-02-17T05:15:05;43.57;;;27.87;;
63110;SDS011;49201;53.426;10.300;2023-02-17T05:17:32;41.67;;;29.03;;
63110;SDS011;49201;53.426;10.300;2023-02-17T05:19:58;44.90;;;27.90;;
63110;SDS011;49201;53.426;10.300;2023-02-17T05:22:23;44.30;;;28.87;;
63110;SDS011;49201;53.426;10.300;2023-02-17T05:24:49;41.87;;;27.70;;
63110;SDS011;49201;53.426;10.300;2023-02-17T05:27:15;44.73;;;28.60;;
63110;SDS011;49201;53.426;10.300;2023-02-17T05:29:40;39.90;;;27.00;;
63110;SDS011;49201;53.426;10.300;2023-02-17T05:32:06;42.33;;;28.73;;
63110;SDS011;49201;53.426;10.300;2023-02-17T05:34:31;43.13;;;27.23;;
63110;SDS011;49201;53.426;10.300;2023-02-17T05:36:57;44.70;;;27.83;;
63110;SDS011;49201;53.426;10.300;2023-02-17T05:39:23;41.47;;;27.47;;
63110;SDS011;49201;53.426;10.300;2023-02-17T05:41:48;42.77;;;29.03;;
63110;SDS011;49201;53.426;10.300;2023-02-17T05:44:14;44.20;;;29.40;;
63110;SDS011;49201;53.426;10.300;2023-02-17T05:46:39;47.67;;;31.37;;
63110;SDS011;49201;53.426;10.300;2023-02-17T05:49:04;46.30;;;30.60;;
63110;SDS011;49201;53.426;10.300;2023-02-17T05:51:30;43.60;;;30.17;;
63110;SDS011;49201;53.426;10.300;2023-02-17T05:53:55;47.43;;;31.07;;
63110;SDS011;49201;53.426;10.300;2023-02-17T05:56:21;51.40;;;32.63;;
63110;SDS011;49201;53.426;10.300;2023-02-17T05:58:46;47.87;;;31.30;;
63110;SDS011;49201;53.426;10.300;2023-02-17T06:01:12;49.67;;;31.30;;
63110;SDS011;49201;53.426;10.300;2023-02-17T06:03:37;59.07;;;33.07;;
63110;SDS011;49201;53.426;10.300;2023-02-17T06:06:03;48.80;;;32.30;;
63110;SDS011;49201;53.426;10.300;2023-02-17T06:08:29;49.80;;;31.53;;
63110;SDS011;49201;53.426;10.300;2023-02-17T06:10:55;52.73;;;31.83;;
63110;SDS011;49201;53.426;10.300;2023-02-17T06:13:20;46.60;;;29.77;;
63110;SDS011;49201;53.426;10.300;2023-02-17T06:15:46;51.13;;;31.77;;
63110;SDS011;49201;53.426;10.300;2023-02-17T06:18:11;50.60;;;32.47;;
63110;SDS011;49201;53.426;10.300;2023-02-17T06:20:37;48.17;;;29.80;;
63110;SDS011;49201;53.426;10.300;2023-02-17T06:23:03;45.50;;;29.07;;
63110;SDS011;49201;53.426;10.300;2023-02-17T06:25:29;43.47;;;29.50;;
63110;SDS011;49201;53.426;10.300;2023-02-17T06:27:54;42.87;;;28.93;;
63110;SDS011;49201;53.426;10.300;2023-02-17T06:30:19;44.87;;;27.53;;
63110;SDS011;49201;53.426;10.300;2023-02-17T06:32:45;44.53;;;28.77;;
63110;SDS011;49201;53.426;10.300;2023-02-17T06:35:11;44.83;;;27.57;;
63110;SDS011;49201;53.426;10.300;2023-02-17T06:37:37;44.67;;;28.03;;
63110;SDS011;49201;53.426;10.300;2023-02-17T06:40:02;44.83;;;27.57;;
63110;SDS011;49201;53.426;10.300;2023-02-17T06:42:28;41.27;;;26.57;;
63110;SDS011;49201;53.426;10.300;2023-02-17T06:44:53;41.77;;;26.87;;
63110;SDS011;49201;53.426;10.300;2023-02-17T06:47:19;43.83;;;26.23;;
63110;SDS011;49201;53.426;10.300;2023-02-17T06:49:44;44.80;;;28.10;;
63110;SDS011;49201;53.426;10.300;2023-02-17T06:52:10;43.40;;;28.23;;
63110;SDS011;49201;53.426;10.300;2023-02-17T06:54:35;46.63;;;28.23;;
63110;SDS011;49201;53.426;10.300;2023-02-17T06:57:00;46.63;;;28.73;;
63110;SDS011;49201;53.426;10.300;2023-02-17T06:59:26;49.93;;;29.40;;
63110;SDS011;49201;53.426;10.300;2023-02-17T07:01:51;48.00;;;28.30;;
63110;SDS011;49201;53.426;10.300;2023-02-17T07:04:17;49.67;;;29.57;;
63110;SDS011;49201;53.426;10.300;2023-02-17T07:06:42;53.60;;;30.43;;
63110;SDS011;49201;53.426;10.300;2023-02-17T07:09:07;52.77;;;30.90;;
63110;SDS011;49201;53.426;10.300;2023-02-17T07:11:35;56.80;;;31.50;;
63110;SDS011;49201;53.426;10.300;2023-02-17T07:14:01;52.93;;;31.37;;
63110;SDS011;49201;53.426;10.300;2023-02-17T07:16:26;57.43;;;34.27;;
63110;SDS011;49201;53.426;10.300;2023-02-17T07:18:52;58.63;;;33.57;;
63110;SDS011;49201;53.426;10.300;2023-02-17T07:21:17;57.50;;;33.77;;
63110;SDS011;49201;53.426;10.300;2023-02-17T07:23:43;58.77;;;35.40;;
63110;SDS011;49201;53.426;10.300;2023-02-17T07:26:09;61.40;;;37.23;;
63110;SDS011;49201;53.426;10.300;2023-02-17T07:28:36;57.07;;;35.67;;
63110;SDS011;49201;53.426;10.300;2023-02-17T07:33:32;60.87;;;36.87;;
63110;SDS011;49201;53.426;10.300;2023-02-17T07:35:58;58.87;;;34.33;;
63110;SDS011;49201;53.426;10.300;2023-02-17T07:38:24;52.30;;;32.97;;
63110;SDS011;49201;53.426;10.300;2023-02-17T07:40:49;55.50;;;34.27;;
63110;SDS011;49201;53.426;10.300;2023-02-17T07:43:15;56.90;;;34.80;;
63110;SDS011;49201;53.426;10.300;2023-02-17T07:45:40;56.53;;;33.97;;
63110;SDS011;49201;53.426;10.300;2023-02-17T07:48:05;55.60;;;33.13;;
63110;SDS011;49201;53.426;10.300;2023-02-17T07:50:31;54.80;;;33.57;;
63110;SDS011;49201;53.426;10.300;2023-02-17T07:52:56;50.63;;;32.13;;
63110;SDS011;49201;53.426;10.300;2023-02-17T07:55:22;55.60;;;32.13;;
63110;SDS011;49201;53.426;10.300;2023-02-17T07:57:48;55.07;;;34.37;;
63110;SDS011;49201;53.426;10.300;2023-02-17T08:00:13;48.70;;;31.40;;
63110;SDS011;49201;53.426;10.300;2023-02-17T08:02:39;50.37;;;31.83;;
63110;SDS011;49201;53.426;10.300;2023-02-17T08:05:05;48.27;;;30.30;;
63110;SDS011;49201;53.426;10.300;2023-02-17T08:07:31;48.33;;;31.40;;
63110;SDS011;49201;53.426;10.300;2023-02-17T08:09:57;45.70;;;29.60;;
63110;SDS011;49201;53.426;10.300;2023-02-17T08:12:41;45.53;;;29.43;;
63110;SDS011;49201;53.426;10.300;2023-02-17T08:15:33;44.80;;;27.07;;
63110;SDS011;49201;53.426;10.300;2023-02-17T08:17:59;47.97;;;29.80;;
63110;SDS011;49201;53.426;10.300;2023-02-17T08:20:25;52.70;;;32.83;;
63110;SDS011;49201;53.426;10.300;2023-02-17T08:22:51;42.20;;;26.93;;
63110;SDS011;49201;53.426;10.300;2023-02-17T08:25:16;41.90;;;28.20;;
63110;SDS011;49201;53.426;10.300;2023-02-17T08:27:43;40.83;;;26.43;;
63110;SDS011;49201;53.426;10.300;2023-02-17T08:30:08;42.47;;;27.53;;
63110;SDS011;49201;53.426;10.300;2023-02-17T08:32:34;43.23;;;28.33;;
63110;SDS011;49201;53.426;10.300;2023-02-17T08:34:59;47.13;;;27.77;;
63110;SDS011;49201;53.426;10.300;2023-02-17T08:37:25;45.57;;;28.80;;
63110;SDS011;49201;53.426;10.300;2023-02-17T08:39:51;42.83;;;27.37;;
63110;SDS011;49201;53.426;10.300;2023-02-17T08:42:17;38.23;;;25.17;;
63110;SDS011;49201;53.426;10.300;2023-02-17T08:44:43;37.97;;;23.63;;
63110;SDS011;49201;53.426;10.300;2023-02-17T08:47:09;38.17;;;23.17;;
63110;SDS011;49201;53.426;10.300;2023-02-17T08:49:34;37.93;;;23.60;;
63110;SDS011;49201;53.426;10.300;2023-02-17T08:52:00;39.00;;;23.87;;
63110;SDS011;49201;53.426;10.300;2023-02-17T08:54:25;35.00;;;21.93;;
63110;SDS011;49201;53.426;10.300;2023-02-17T08:56:51;33.30;;;22.33;;
63110;SDS011;49201;53.426;10.300;2023-02-17T08:59:16;35.67;;;22.27;;
63110;SDS011;49201;53.426;10.300;2023-02-17T09:01:42;32.93;;;20.03;;
63110;SDS011;49201;53.426;10.300;2023-02-17T09:04:08;30.63;;;19.40;;
63110;SDS011;49201;53.426;10.300;2023-02-17T09:06:39;30.90;;;20.07;;
63110;SDS011;49201;53.426;10.300;2023-02-17T09:09:07;32.80;;;20.10;;
63110;SDS011;49201;53.426;10.300;2023-02-17T09:11:34;30.87;;;18.50;;
63110;SDS011;49201;53.426;10.300;2023-02-17T09:14:00;29.87;;;18.73;;
63110;SDS011;49201;53.426;10.300;2023-02-17T09:16:26;34.03;;;19.93;;
63110;SDS011;49201;53.426;10.300;2023-02-17T09:18:52;26.37;;;18.37;;
63110;SDS011;49201;53.426;10.300;2023-02-17T09:21:18;28.37;;;18.33;;
63110;SDS011;49201;53.426;10.300;2023-02-17T09:23:45;30.10;;;18.57;;
63110;SDS011;49201;53.426;10.300;2023-02-17T09:26:11;32.63;;;19.80;;
63110;SDS011;49201;53.426;10.300;2023-02-17T09:28:38;29.87;;;18.60;;
63110;SDS011;49201;53.426;10.300;2023-02-17T09:31:08;30.30;;;19.33;;
63110;SDS011;49201;53.426;10.300;2023-02-17T09:33:37;30.93;;;19.50;;
63110;SDS011;49201;53.426;10.300;2023-02-17T09:36:03;32.57;;;18.67;;
63110;SDS011;49201;53.426;10.300;2023-02-17T09:38:30;29.57;;;18.70;;
63110;SDS011;49201;53.426;10.300;2023-02-17T09:40:55;27.77;;;18.27;;
63110;SDS011;49201;53.426;10.300;2023-02-17T09:43:32;27.40;;;17.10;;
63110;SDS011;49201;53.426;10.300;2023-02-17T09:45:59;26.57;;;17.87;;
63110;SDS011;49201;53.426;10.300;2023-02-17T09:48:31;26.33;;;17.97;;
63110;SDS011;49201;53.426;10.300;2023-02-17T09:51:00;23.77;;;16.03;;
63110;SDS011;49201;53.426;10.300;2023-02-17T09:53:40;25.00;;;16.47;;
63110;SDS011;49201;53.426;10.300;2023-02-17T09:56:14;23.53;;;15.67;;
63110;SDS011;49201;53.426;10.300;2023-02-17T09:58:54;22.57;;;14.97;;
63110;SDS011;49201;53.426;10.300;2023-02-17T10:01:31;23.03;;;16.13;;
63110;SDS011;49201;53.426;10.300;2023-02-17T10:06:33;26.53;;;16.37;;
63110;SDS011;49201;53.426;10.300;2023-02-17T10:14:38;24.60;;;16.03;;
63110;SDS011;49201;53.426;10.300;2023-02-17T10:17:19;23.17;;;15.60;;
63110;SDS011;49201;53.426;10.300;2023-02-17T10:19:55;26.63;;;16.67;;
63110;SDS011;49201;53.426;10.300;2023-02-17T10:22:46;29.73;;;17.70;;
63110;SDS011;49201;53.426;10.300;2023-02-17T10:25:19;27.00;;;16.73;;
63110;SDS011;49201;53.426;10.300;2023-02-17T10:28:07;25.73;;;17.27;;
63110;SDS011;49201;53.426;10.300;2023-02-17T10:30:40;23.93;;;16.10;;
63110;SDS011;49201;53.426;10.300;2023-02-17T10:35:58;26.67;;;17.27;;
63110;SDS011;49201;53.426;10.300;2023-02-17T10:38:52;25.73;;;16.97;;
63110;SDS011;49201;53.426;10.300;2023-02-17T10:41:26;28.13;;;18.03;;
63110;SDS011;49201;53.426;10.300;2023-02-17T10:43:58;25.23;;;16.50;;
63110;SDS011;49201;53.426;10.300;2023-02-17T10:46:28;28.53;;;17.90;;
63110;SDS011;49201;53.426;10.300;2023-02-17T10:48:55;28.50;;;16.53;;
63110;SDS011;49201;53.426;10.300;2023-02-17T10:51:27;27.63;;;17.27;;
63110;SDS011;49201;53.426;10.300;2023-02-17T10:53:59;27.83;;;17.67;;
63110;SDS011;49201;53.426;10.300;2023-02-17T10:56:47;27.77;;;17.57;;
63110;SDS011;49201;53.426;10.300;2023-02-17T10:59:28;31.13;;;18.30;;
63110;SDS011;49201;53.426;10.300;2023-02-17T11:05:02;28.20;;;17.90;;
63110;SDS011;49201;53.426;10.300;2023-02-17T11:09:59;28.83;;;17.87;;
63110;SDS011;49201;53.426;10.300;2023-02-17T11:12:48;31.50;;;18.83;;
63110;SDS011;49201;53.426;10.300;2023-02-17T11:15:22;32.00;;;19.30;;
63110;SDS011;49201;53.426;10.300;2023-02-17T11:17:54;33.47;;;20.23;;
63110;SDS011;49201;53.426;10.300;2023-02-17T11:22:47;31.27;;;19.80;;
63110;SDS011;49201;53.426;10.300;2023-02-17T11:25:28;30.97;;;19.33;;
63110;SDS011;49201;53.426;10.300;2023-02-17T11:28:02;30.57;;;19.03;;
63110;SDS011;49201;53.426;10.300;2023-02-17T11:30:31;31.60;;;20.13;;
63110;SDS011;49201;53.426;10.300;2023-02-17T11:32:57;31.63;;;19.47;;
63110;SDS011;49201;53.426;10.300;2023-02-17T11:35:25;29.40;;;18.63;;
63110;SDS011;49201;53.426;10.300;2023-02-17T11:38:11;34.00;;;19.13;;
63110;SDS011;49201;53.426;10.300;2023-02-17T11:40:36;33.23;;;19.27;;
63110;SDS011;49201;53.426;10.300;2023-02-17T11:43:03;31.37;;;19.03;;
63110;SDS011;49201;53.426;10.300;2023-02-17T11:49:12;33.33;;;19.17;;
63110;SDS011;49201;53.426;10.300;2023-02-17T12:01:02;34.30;;;20.07;;
63110;SDS011;49201;53.426;10.300;2023-02-17T12:17:53;29.27;;;18.63;;
63110;SDS011;49201;53.426;10.300;2023-02-17T12:23:30;29.10;;;18.43;;
63110;SDS011;49201;53.426;10.300;2023-02-17T12:26:05;28.47;;;18.77;;
63110;SDS011;49201;53.426;10.300;2023-02-17T12:34:15;26.83;;;16.97;;
63110;SDS011;49201;53.426;10.300;2023-02-17T12:36:46;27.13;;;16.83;;
63110;SDS011;49201;53.426;10.300;2023-02-17T12:39:20;32.20;;;17.30;;
63110;SDS011;49201;53.426;10.300;2023-02-17T12:44:38;28.67;;;16.13;;
63110;SDS011;49201;53.426;10.300;2023-02-17T12:47:09;24.93;;;15.70;;
63110;SDS011;49201;53.426;10.300;2023-02-17T12:49:47;24.77;;;15.50;;
63110;SDS011;49201;53.426;10.300;2023-02-17T12:52:20;23.20;;;15.10;;
63110;SDS011;49201;53.426;10.300;2023-02-17T12:54:55;24.23;;;15.10;;
63110;SDS011;49201;53.426;10.300;2023-02-17T13:00:28;26.17;;;15.40;;
63110;SDS011;49201;53.426;10.300;2023-02-17T13:02:57;25.30;;;15.57;;
63110;SDS011;49201;53.426;10.300;2023-02-17T13:05:25;21.03;;;14.87;;
63110;SDS011;49201;53.426;10.300;2023-02-17T13:07:59;27.07;;;16.23;;
63110;SDS011;49201;53.426;10.300;2023-02-17T13:10:34;19.93;;;14.10;;
63110;SDS011;49201;53.426;10.300;2023-02-17T13:16:09;19.83;;;13.57;;
63110;SDS011;49201;53.426;10.300;2023-02-17T13:18:37;22.07;;;13.23;;
63110;SDS011;49201;53.426;10.300;2023-02-17T13:24:34;18.27;;;12.30;;
63110;SDS011;49201;53.426;10.300;2023-02-17T13:26:54;16.63;;;11.00;;
63110;SDS011;49201;53.426;10.300;2023-02-17T13:31:50;15.83;;;10.63;;
63110;SDS011;49201;53.426;10.300;2023-02-17T13:36:54;16.60;;;10.10;;
63110;SDS011;49201;53.426;10.300;2023-02-17T13:41:56;13.93;;;8.80;;
63110;SDS011;49201;53.426;10.300;2023-02-17T13:46:56;12.77;;;9.47;;
63110;SDS011;49201;53.426;10.300;2023-02-17T13:49:25;13.63;;;8.73;;
63110;SDS011;49201;53.426;10.300;2023-02-17T13:51:53;11.13;;;7.90;;
63110;SDS011;49201;53.426;10.300;2023-02-17T13:54:20;10.57;;;7.27;;
63110;SDS011;49201;53.426;10.300;2023-02-17T13:56:50;12.53;;;8.47;;
63110;SDS011;49201;53.426;10.300;2023-02-17T13:59:22;12.03;;;7.97;;
63110;SDS011;49201;53.426;10.300;2023-02-17T14:01:49;9.47;;;7.20;;
63110;SDS011;49201;53.426;10.300;2023-02-17T14:04:28;9.57;;;6.60;;
63110;SDS011;49201;53.426;10.300;2023-02-17T14:06:56;12.37;;;6.77;;
63110;SDS011;49201;53.426;10.300;2023-02-17T14:09:25;11.57;;;7.13;;
63110;SDS011;49201;53.426;10.300;2023-02-17T14:11:53;11.70;;;7.20;;
63110;SDS011;49201;53.426;10.300;2023-02-17T14:14:21;9.30;;;7.07;;
63110;SDS011;49201;53.426;10.300;2023-02-17T14:16:58;14.97;;;7.47;;
63110;SDS011;49201;53.426;10.300;2023-02-17T14:19:41;13.13;;;7.43;;
63110;SDS011;49201;53.426;10.300;2023-02-17T14:22:28;13.53;;;7.80;;
63110;SDS011;49201;53.426;10.300;2023-02-17T14:27:39;11.07;;;7.70;;
63110;SDS011;49201;53.426;10.300;2023-02-17T14:30:25;12.40;;;7.70;;
63110;SDS011;49201;53.426;10.300;2023-02-17T14:33:17;15.50;;;7.50;;
63110;SDS011;49201;53.426;10.300;2023-02-17T14:35:54;11.13;;;6.70;;
63110;SDS011;49201;53.426;10.300;2023-02-17T14:40:56;9.53;;;6.27;;
63110;SDS011;49201;53.426;10.300;2023-02-17T14:43:22;12.77;;;5.90;;
63110;SDS011;49201;53.426;10.300;2023-02-17T14:45:49;7.23;;;5.13;;
63110;SDS011;49201;53.426;10.300;2023-02-17T14:48:15;9.40;;;5.57;;
63110;SDS011;49201;53.426;10.300;2023-02-17T14:50:40;12.97;;;5.23;;
63110;SDS011;49201;53.426;10.300;2023-02-17T14:53:24;11.83;;;4.67;;
63110;SDS011;49201;53.426;10.300;2023-02-17T14:55:58;9.50;;;4.73;;
63110;SDS011;49201;53.426;10.300;2023-02-17T14:58:30;12.13;;;5.40;;
63110;SDS011;49201;53.426;10.300;2023-02-17T15:00:56;8.30;;;4.83;;
63110;SDS011;49201;53.426;10.300;2023-02-17T15:03:22;14.37;;;5.40;;
63110;SDS011;49201;53.426;10.300;2023-02-17T15:05:48;7.70;;;5.27;;
63110;SDS011;49201;53.426;10.300;2023-02-17T15:08:15;13.27;;;6.30;;
63110;SDS011;49201;53.426;10.300;2023-02-17T15:10:44;7.50;;;5.57;;
63110;SDS011;49201;53.426;10.300;2023-02-17T15:13:12;10.20;;;5.93;;
63110;SDS011;49201;53.426;10.300;2023-02-17T15:15:42;13.83;;;5.30;;
63110;SDS011;49201;53.426;10.300;2023-02-17T15:18:15;10.53;;;4.73;;
63110;SDS011;49201;53.426;10.300;2023-02-17T15:20:44;10.07;;;3.30;;
63110;SDS011;49201;53.426;10.300;2023-02-17T15:23:20;10.00;;;2.07;;
63110;SDS011;49201;53.426;10.300;2023-02-17T15:25:49;13.77;;;2.87;;
63110;SDS011;49201;53.426;10.300;2023-02-17T15:28:16;8.40;;;2.27;;
63110;SDS011;49201;53.426;10.300;2023-02-17T15:30:45;12.13;;;2.53;;
63110;SDS011;49201;53.426;10.300;2023-02-17T15:33:15;10.67;;;2.40;;
63110;SDS011;49201;53.426;10.300;2023-02-17T15:35:41;12.17;;;3.00;;
63110;SDS011;49201;53.426;10.300;2023-02-17T15:38:11;11.13;;;2.20;;
63110;SDS011;49201;53.426;10.300;2023-02-17T15:40:37;12.50;;;2.90;;
63110;SDS011;49201;53.426;10.300;2023-02-17T15:43:04;9.00;;;2.93;;
63110;SDS011;49201;53.426;10.300;2023-02-17T15:45:31;14.27;;;3.47;;
63110;SDS011;49201;53.426;10.300;2023-02-17T15:48:03;13.33;;;3.20;;
63110;SDS011;49201;53.426;10.300;2023-02-17T15:50:32;14.73;;;3.20;;
63110;SDS011;49201;53.426;10.300;2023-02-17T15:52:57;15.77;;;3.20;;
63110;SDS011;49201;53.426;10.300;2023-02-17T15:55:23;14.30;;;3.50;;
63110;SDS011;49201;53.426;10.300;2023-02-17T15:57:50;21.87;;;3.97;;
63110;SDS011;49201;53.426;10.300;2023-02-17T16:00:20;18.30;;;3.93;;
63110;SDS011;49201;53.426;10.300;2023-02-17T16:02:49;16.23;;;4.07;;
63110;SDS011;49201;53.426;10.300;2023-02-17T16:05:16;14.77;;;2.83;;
63110;SDS011;49201;53.426;10.300;2023-02-17T16:07:43;16.17;;;3.77;;
63110;SDS011;49201;53.426;10.300;2023-02-17T16:10:09;17.87;;;3.70;;
63110;SDS011;49201;53.426;10.300;2023-02-17T16:12:36;19.00;;;4.00;;